createdAt,value
2022-11-22T00:00:25.559Z,32.43
2022-11-22T00:02:52.394Z,31.43
2022-11-22T00:05:19.475Z,30.53
2022-11-22T00:07:46.169Z,32.50
2022-11-22T00:10:16.313Z,26.20
2022-11-22T00:12:44.484Z,27.23
2022-11-22T00:15:11.797Z,24.97
2022-11-22T00:17:39.112Z,25.47
2022-11-22T00:20:07.908Z,23.60
2022-11-22T00:22:38.523Z,31.10
2022-11-22T00:25:08.420Z,22.33
2022-11-22T00:27:35.175Z,24.97
2022-11-22T00:30:01.860Z,25.67
2022-11-22T00:32:28.482Z,26.73
2022-11-22T00:34:55.161Z,26.90
2022-11-22T00:37:21.876Z,24.30
2022-11-22T00:39:48.467Z,22.90
2022-11-22T00:42:15.160Z,23.27
2022-11-22T00:44:41.784Z,20.13
2022-11-22T00:47:08.380Z,19.13
2022-11-22T00:49:35.000Z,23.97
2022-11-22T00:52:01.658Z,23.60
2022-11-22T00:54:28.809Z,23.90
2022-11-22T00:56:55.420Z,25.17
2022-11-22T00:59:22.018Z,23.90
2022-11-22T01:01:48.700Z,20.70
2022-11-22T01:04:15.326Z,27.57
2022-11-22T01:06:41.956Z,28.33
2022-11-22T01:09:08.568Z,24.60
2022-11-22T01:11:35.175Z,26.30
2022-11-22T01:14:02.082Z,24.20
2022-11-22T01:16:28.689Z,27.10
2022-11-22T01:18:55.358Z,26.57
2022-11-22T01:21:21.998Z,24.13
2022-11-22T01:23:48.666Z,29.03
2022-11-22T01:26:15.393Z,23.17
2022-11-22T01:28:41.991Z,24.60
2022-11-22T01:31:09.414Z,24.63
2022-11-22T01:33:36.127Z,23.53
2022-11-22T01:36:02.763Z,26.80
2022-11-22T01:38:29.388Z,29.37
2022-11-22T01:40:55.963Z,24.13
2022-11-22T01:43:25.146Z,21.17
2022-11-22T01:45:56.883Z,21.87
2022-11-22T01:48:38.539Z,23.87
2022-11-22T01:51:25.674Z,21.57
2022-11-22T01:53:52.575Z,23.83
2022-11-22T01:56:20.714Z,21.40
2022-11-22T01:58:50.357Z,21.77
2022-11-22T02:01:17.112Z,25.97
2022-11-22T02:03:46.540Z,20.03
2022-11-22T02:06:13.870Z,28.30
2022-11-22T02:08:47.476Z,25.73
2022-11-22T02:11:14.066Z,26.23
2022-11-22T02:13:42.826Z,24.13
2022-11-22T02:16:10.597Z,24.20
2022-11-22T02:18:37.735Z,26.50
2022-11-22T02:21:04.889Z,23.37
2022-11-22T02:23:36.912Z,23.97
2022-11-22T02:26:03.973Z,21.10
2022-11-22T02:28:33.460Z,19.90
2022-11-22T02:31:00.210Z,22.97
2022-11-22T02:33:26.866Z,22.40
2022-11-22T02:35:53.650Z,19.30
2022-11-22T02:38:26.213Z,20.23
2022-11-22T02:40:55.834Z,24.17
2022-11-22T02:43:38.299Z,21.67
2022-11-22T02:46:12.831Z,28.73
2022-11-22T02:48:43.546Z,23.60
2022-11-22T02:51:10.577Z,25.17
2022-11-22T02:53:37.458Z,27.20
2022-11-22T02:56:04.132Z,21.83
2022-11-22T02:58:30.766Z,26.63
2022-11-22T03:00:57.856Z,21.27
2022-11-22T03:03:24.496Z,25.13
2022-11-22T03:05:51.120Z,22.80
2022-11-22T03:08:17.760Z,25.57
2022-11-22T03:10:44.387Z,21.50
2022-11-22T03:13:11.123Z,27.00
2022-11-22T03:15:37.771Z,24.07
2022-11-22T03:18:04.794Z,24.80
2022-11-22T03:20:32.766Z,29.10
2022-11-22T03:23:02.652Z,25.27
2022-11-22T03:25:29.300Z,26.70
2022-11-22T03:27:55.941Z,27.50
2022-11-22T03:30:22.583Z,29.77
2022-11-22T03:32:49.238Z,27.93
2022-11-22T03:35:15.940Z,24.03
2022-11-22T03:37:42.558Z,28.00
2022-11-22T03:40:09.546Z,26.83
2022-11-22T03:42:36.163Z,25.33
2022-11-22T03:45:02.861Z,28.00
2022-11-22T03:47:29.572Z,25.93
2022-11-22T03:49:56.179Z,28.13
2022-11-22T03:52:22.997Z,29.70
2022-11-22T03:54:50.525Z,27.00
2022-11-22T03:57:17.504Z,30.37
2022-11-22T03:59:44.199Z,28.57
2022-11-22T04:02:10.894Z,28.80
2022-11-22T04:04:37.572Z,28.73
2022-11-22T04:07:04.211Z,28.00
2022-11-22T04:09:31.168Z,31.87
2022-11-22T04:11:57.988Z,31.37
2022-11-22T04:14:43.213Z,24.97
2022-11-22T04:17:13.492Z,26.63
2022-11-22T04:20:00.047Z,32.03
2022-11-22T04:22:26.653Z,34.23
2022-11-22T04:25:11.890Z,30.27
2022-11-22T04:27:38.474Z,32.70
2022-11-22T04:30:05.474Z,27.87
2022-11-22T04:32:47.183Z,29.83
2022-11-22T04:35:18.557Z,30.03
2022-11-22T04:37:51.450Z,34.30
2022-11-22T04:40:18.101Z,29.93
2022-11-22T04:43:03.458Z,30.40
2022-11-22T04:45:30.347Z,34.40
2022-11-22T04:47:59.847Z,30.00
2022-11-22T04:50:58.072Z,28.67
2022-11-22T04:53:25.862Z,27.83
2022-11-22T04:55:52.483Z,31.87
2022-11-22T04:58:20.335Z,32.77
2022-11-22T05:00:47.627Z,28.47
2022-11-22T05:03:14.511Z,31.87
2022-11-22T05:05:43.010Z,31.10
2022-11-22T05:08:10.160Z,31.70
2022-11-22T05:10:56.619Z,38.10
2022-11-22T05:13:37.347Z,30.97
2022-11-22T05:16:05.697Z,27.87
2022-11-22T05:18:32.578Z,33.63
2022-11-22T05:21:00.723Z,33.27
2022-11-22T05:23:45.943Z,30.80
2022-11-22T05:26:12.554Z,34.07
2022-11-22T05:28:39.936Z,33.13
2022-11-22T05:31:12.524Z,36.37
2022-11-22T05:33:40.806Z,34.17
2022-11-22T05:36:07.863Z,33.13
2022-11-22T05:38:35.779Z,34.30
2022-11-22T05:41:05.821Z,33.53
2022-11-22T05:43:33.439Z,39.27
2022-11-22T05:46:09.018Z,35.23
2022-11-22T05:48:36.644Z,29.97
2022-11-22T05:51:07.425Z,31.43
2022-11-22T05:53:35.380Z,38.90
2022-11-22T05:56:09.659Z,37.40
2022-11-22T06:01:08.168Z,31.10
2022-11-22T06:03:35.802Z,36.00
2022-11-22T06:06:03.300Z,37.73
2022-11-22T06:08:31.103Z,38.73
2022-11-22T06:11:05.102Z,40.63
2022-11-22T06:13:39.276Z,36.00
2022-11-22T06:16:06.985Z,40.00
2022-11-22T06:18:33.978Z,40.00
2022-11-22T06:21:02.268Z,33.40
2022-11-22T06:23:29.505Z,40.80
2022-11-22T06:26:04.277Z,40.77
2022-11-22T06:28:32.344Z,38.90
2022-11-22T06:31:15.061Z,40.97
2022-11-22T06:33:42.372Z,38.80
2022-11-22T06:36:13.051Z,46.27
2022-11-22T06:38:40.787Z,46.07
2022-11-22T06:41:18.549Z,40.17
2022-11-22T06:43:49.028Z,46.10
2022-11-22T06:46:19.499Z,42.10
2022-11-22T06:48:47.125Z,47.37
2022-11-22T06:51:20.116Z,43.33
2022-11-22T06:53:48.811Z,40.80
2022-11-22T06:56:27.050Z,44.77
2022-11-22T06:58:54.004Z,47.83
2022-11-22T07:01:28.431Z,48.53
2022-11-22T07:03:58.327Z,47.17
2022-11-22T07:06:27.147Z,44.50
2022-11-22T07:08:54.273Z,43.47
2022-11-22T07:11:26.302Z,48.40
2022-11-22T07:13:53.966Z,52.97
2022-11-22T07:16:21.048Z,53.77
2022-11-22T07:18:48.329Z,45.77
2022-11-22T07:21:20.073Z,45.53
2022-11-22T07:23:48.645Z,46.67
2022-11-22T07:26:16.284Z,46.03
2022-11-22T07:28:43.159Z,42.23
2022-11-22T07:31:11.301Z,43.93
2022-11-22T07:33:38.331Z,46.03
2022-11-22T07:36:06.756Z,45.67
2022-11-22T07:38:33.967Z,46.50
2022-11-22T07:41:01.046Z,41.30
2022-11-22T07:43:28.422Z,47.83
2022-11-22T07:46:01.222Z,48.20
2022-11-22T07:48:27.837Z,44.17
2022-11-22T07:50:54.475Z,44.60
2022-11-22T07:53:21.333Z,42.63
2022-11-22T07:55:48.071Z,43.37
2022-11-22T07:58:14.753Z,41.93
2022-11-22T08:00:41.335Z,44.53
2022-11-22T08:03:08.726Z,41.07
2022-11-22T08:05:35.340Z,47.07
2022-11-22T08:08:01.945Z,47.60
2022-11-22T08:10:28.538Z,51.90
2022-11-22T08:12:59.123Z,47.53
2022-11-22T08:15:26.490Z,48.07
2022-11-22T08:17:53.331Z,43.63
2022-11-22T08:20:20.950Z,45.30
2022-11-22T08:22:47.609Z,42.60
2022-11-22T08:25:14.247Z,40.73
2022-11-22T08:27:41.641Z,44.70
2022-11-22T08:30:10.353Z,46.03
2022-11-22T08:32:36.959Z,46.43
2022-11-22T08:35:03.942Z,47.50
2022-11-22T08:37:30.591Z,45.73
2022-11-22T08:39:57.411Z,48.03
2022-11-22T08:42:23.997Z,46.67
2022-11-22T08:44:51.178Z,55.87
2022-11-22T08:47:17.810Z,48.07
2022-11-22T08:49:44.499Z,45.53
2022-11-22T08:52:11.242Z,49.33
2022-11-22T08:54:38.357Z,45.00
2022-11-22T08:57:05.435Z,49.27
2022-11-22T08:59:32.583Z,51.83
2022-11-22T09:01:59.750Z,49.00
2022-11-22T09:04:26.866Z,49.20
2022-11-22T09:09:40.304Z,47.00
2022-11-22T09:12:07.312Z,50.87
2022-11-22T09:14:34.017Z,52.47
2022-11-22T09:17:00.713Z,50.33
2022-11-22T09:19:27.310Z,47.87
2022-11-22T09:21:53.949Z,50.57
2022-11-22T09:24:20.609Z,51.37
2022-11-22T09:26:48.441Z,50.77
2022-11-22T09:29:16.033Z,61.83
2022-11-22T09:31:43.270Z,54.63
2022-11-22T09:34:10.017Z,48.10
2022-11-22T09:36:36.685Z,47.87
2022-11-22T09:39:03.427Z,54.37
2022-11-22T09:41:45.314Z,50.07
2022-11-22T09:44:21.229Z,63.47
2022-11-22T09:46:56.293Z,52.50
2022-11-22T09:49:39.075Z,53.47
2022-11-22T09:52:26.796Z,57.27
2022-11-22T09:55:00.005Z,52.93
2022-11-22T09:57:31.690Z,51.40
2022-11-22T10:00:15.770Z,55.80
2022-11-22T10:02:59.783Z,54.72
2022-11-22T10:05:32.156Z,64.45
2022-11-22T10:08:23.176Z,58.00
2022-11-22T10:10:52.608Z,55.33
2022-11-22T10:13:31.124Z,53.57
2022-11-22T10:16:03.900Z,57.03
2022-11-22T10:18:41.373Z,59.13
2022-11-22T10:21:13.098Z,62.07
2022-11-22T10:23:41.349Z,59.27
2022-11-22T10:26:21.810Z,46.83
2022-11-22T10:29:13.292Z,60.60
2022-11-22T10:31:58.696Z,56.37
2022-11-22T10:34:29.280Z,57.73
2022-11-22T10:37:07.500Z,58.20
2022-11-22T10:39:55.828Z,61.57
2022-11-22T10:42:28.527Z,61.17
2022-11-22T10:45:15.705Z,60.30
2022-11-22T10:47:56.461Z,65.00
2022-11-22T10:50:29.304Z,65.50
2022-11-22T10:53:01.977Z,55.70
2022-11-22T10:55:50.617Z,56.50
2022-11-22T10:58:20.141Z,60.00
2022-11-22T11:00:50.511Z,68.43
2022-11-22T11:03:35.953Z,64.73
2022-11-22T11:06:37.891Z,66.93
2022-11-22T11:09:55.182Z,61.90
2022-11-22T11:11:51.439Z,114.30
2022-11-22T11:14:24.788Z,70.30
2022-11-22T11:16:51.600Z,68.72
2022-11-22T11:19:20.219Z,81.37
2022-11-22T11:21:55.813Z,67.57
2022-11-22T11:24:22.407Z,60.13
2022-11-22T11:26:54.593Z,63.27
2022-11-22T11:29:24.203Z,66.07
2022-11-22T11:32:04.304Z,62.73
2022-11-22T11:34:31.101Z,60.10
2022-11-22T11:36:58.540Z,59.73
2022-11-22T11:39:29.940Z,63.03
2022-11-22T11:41:56.955Z,62.77
2022-11-22T11:44:33.271Z,63.93
2022-11-22T11:47:00.320Z,60.77
2022-11-22T11:49:29.302Z,58.27
2022-11-22T11:51:58.525Z,57.43
2022-11-22T11:54:41.685Z,56.63
2022-11-22T11:57:14.257Z,61.80
2022-11-22T11:59:40.791Z,66.70
2022-11-22T12:02:16.779Z,65.77
2022-11-22T12:04:57.593Z,66.00
2022-11-22T12:07:44.976Z,63.10
2022-11-22T12:10:56.071Z,59.23
2022-11-22T12:13:32.093Z,62.83
2022-11-22T12:16:12.721Z,55.17
2022-11-22T12:18:44.457Z,60.00
2022-11-22T12:21:30.768Z,76.60
2022-11-22T12:24:45.193Z,73.57
2022-11-22T12:27:10.059Z,66.53
2022-11-22T12:29:38.854Z,57.93
2022-11-22T12:32:11.113Z,81.03
2022-11-22T12:34:53.661Z,69.33
2022-11-22T12:37:34.587Z,60.57
2022-11-22T12:40:04.532Z,57.53
2022-11-22T12:43:08.388Z,59.90
2022-11-22T12:45:38.484Z,58.67
2022-11-22T12:48:08.917Z,54.73
2022-11-22T12:50:45.602Z,71.60
2022-11-22T12:53:15.280Z,63.63
2022-11-22T12:56:09.867Z,59.60
2022-11-22T12:58:47.203Z,54.13
2022-11-22T13:01:26.345Z,62.53
2022-11-22T13:04:01.899Z,62.60
2022-11-22T13:06:36.923Z,57.03
2022-11-22T13:09:07.472Z,53.63
2022-11-22T13:11:41.208Z,59.23
2022-11-22T13:14:19.340Z,63.80
2022-11-22T13:16:49.463Z,52.40
2022-11-22T13:19:17.061Z,60.97
2022-11-22T13:22:04.899Z,48.03
2022-11-22T13:24:47.885Z,56.67
2022-11-22T13:27:21.622Z,54.30
2022-11-22T13:29:49.948Z,136.45
2022-11-22T13:32:19.988Z,71.40
2022-11-22T13:35:11.963Z,103.07
2022-11-22T13:37:43.952Z,82.87
2022-11-22T13:40:23.034Z,71.50
2022-11-22T13:43:22.376Z,57.77
2022-11-22T13:46:16.147Z,60.67
2022-11-22T13:48:42.623Z,58.53
2022-11-22T13:51:15.278Z,57.90
2022-11-22T13:53:44.298Z,64.83
2022-11-22T13:56:16.969Z,54.63
2022-11-22T13:58:52.291Z,57.67
2022-11-22T14:01:34.743Z,60.57
2022-11-22T14:04:18.021Z,64.87
2022-11-22T14:06:54.698Z,68.93
2022-11-22T14:09:37.469Z,58.90
2022-11-22T14:12:20.538Z,62.57
2022-11-22T14:15:12.007Z,68.90
2022-11-22T14:17:48.066Z,65.47
2022-11-22T14:21:00.351Z,70.43
2022-11-22T14:23:49.123Z,63.77
2022-11-22T14:26:25.133Z,60.83
2022-11-22T14:29:11.607Z,66.97
2022-11-22T14:31:39.227Z,64.07
2022-11-22T14:34:16.233Z,66.00
2022-11-22T14:36:43.852Z,61.77
2022-11-22T14:39:44.879Z,60.20
2022-11-22T14:42:38.892Z,65.20
2022-11-22T14:45:10.202Z,64.80
2022-11-22T14:48:04.515Z,78.07
2022-11-22T14:50:37.307Z,68.32
2022-11-22T14:53:28.124Z,62.23
2022-11-22T14:56:03.825Z,64.60
2022-11-22T14:58:31.439Z,67.50
2022-11-22T15:01:24.553Z,66.43
2022-11-22T15:09:14.763Z,68.03
2022-11-22T15:09:24.043Z,71.80
2022-11-22T15:10:08.381Z,73.73
2022-11-22T15:13:08.525Z,67.77
2022-11-22T15:59:40.404Z,75.20
2022-11-22T16:02:13.609Z,64.43
2022-11-22T16:04:47.134Z,70.37
2022-11-22T16:07:29.291Z,77.60
2022-11-22T16:09:56.017Z,79.17
2022-11-22T16:12:35.591Z,63.97
2022-11-22T16:15:36.128Z,68.73
2022-11-22T16:18:10.431Z,78.07
2022-11-22T16:20:38.975Z,71.43
2022-11-22T16:23:15.082Z,68.70
2022-11-22T16:25:44.517Z,73.77
2022-11-22T16:28:21.542Z,74.47
2022-11-22T16:30:48.249Z,76.00
2022-11-22T16:33:15.000Z,73.27
2022-11-22T16:35:41.607Z,76.60
2022-11-22T16:38:08.172Z,77.53
2022-11-22T16:40:42.831Z,76.60
2022-11-22T16:43:15.313Z,83.53
2022-11-22T16:45:42.375Z,78.67
2022-11-22T16:48:37.378Z,75.67
2022-11-22T16:53:47.650Z,73.53
2022-11-22T16:56:22.632Z,79.40
2022-11-22T16:58:50.499Z,74.80
2022-11-22T17:01:22.129Z,76.20
2022-11-22T17:03:50.573Z,85.80
2022-11-22T17:06:20.348Z,68.97
2022-11-22T17:08:48.379Z,81.87
2022-11-22T17:11:17.049Z,78.10
2022-11-22T17:13:43.682Z,75.37
2022-11-22T17:16:11.446Z,86.50
2022-11-22T17:18:38.922Z,81.87
2022-11-22T17:21:10.484Z,78.27
2022-11-22T17:23:38.437Z,77.20
2022-11-22T17:26:05.708Z,81.87
2022-11-22T17:28:32.299Z,84.60
2022-11-22T17:30:59.642Z,79.87
2022-11-22T17:33:26.277Z,72.90
2022-11-22T17:35:53.033Z,83.60
2022-11-22T17:38:19.673Z,77.40
2022-11-22T17:40:46.396Z,80.20
2022-11-22T17:43:13.338Z,81.40
2022-11-22T17:45:42.908Z,71.70
2022-11-22T17:48:15.891Z,76.70
2022-11-22T17:50:42.487Z,71.33
2022-11-22T17:53:09.065Z,75.07
2022-11-22T17:56:08.484Z,81.53
2022-11-22T17:58:24.494Z,75.10
2022-11-22T18:00:51.074Z,75.50
2022-11-22T18:03:17.682Z,80.57
2022-11-22T18:05:44.401Z,86.00
2022-11-22T18:08:11.027Z,85.53
2022-11-22T18:10:38.485Z,81.53
2022-11-22T18:13:20.878Z,76.63
2022-11-22T18:15:52.365Z,87.30
2022-11-22T18:18:48.537Z,77.13
2022-11-22T18:21:11.420Z,76.87
2022-11-22T18:23:41.856Z,68.70
2022-11-22T18:29:32.582Z,76.60
2022-11-22T18:31:54.035Z,76.27
2022-11-22T18:34:24.384Z,77.97
2022-11-22T18:37:06.766Z,78.60
2022-11-22T18:39:36.278Z,80.50
2022-11-22T18:42:10.061Z,81.27
2022-11-22T18:44:36.671Z,71.23
2022-11-22T18:47:03.460Z,77.97
2022-11-22T18:49:30.573Z,91.20
2022-11-22T18:51:57.658Z,80.33
2022-11-22T18:54:24.490Z,89.57
2022-11-22T18:56:51.550Z,72.17
2022-11-22T18:59:18.641Z,69.10
2022-11-22T19:01:45.344Z,68.10
2022-11-22T19:04:14.120Z,86.03
2022-11-22T19:06:41.937Z,78.90
2022-11-22T19:09:09.131Z,72.40
2022-11-22T19:11:35.829Z,72.93
2022-11-22T19:14:02.444Z,74.30
2022-11-22T19:16:30.281Z,72.43
2022-11-22T19:18:57.738Z,76.73
2022-11-22T19:21:26.727Z,72.33
2022-11-22T19:23:53.378Z,70.03
2022-11-22T19:26:21.964Z,70.17
2022-11-22T19:28:49.200Z,70.00
2022-11-22T19:31:20.805Z,70.50
2022-11-22T19:33:47.694Z,72.20
2022-11-22T19:36:16.704Z,74.23
2022-11-22T19:38:43.772Z,76.63
2022-11-22T19:41:11.758Z,67.37
2022-11-22T19:43:39.500Z,73.53
2022-11-22T19:46:06.733Z,71.53
2022-11-22T19:48:35.382Z,66.83
2022-11-22T19:51:09.447Z,62.43
2022-11-22T19:53:36.186Z,72.18
2022-11-22T19:56:23.324Z,76.17
2022-11-22T19:58:52.125Z,60.70
2022-11-22T20:01:19.639Z,69.97
2022-11-22T20:03:46.871Z,70.83
2022-11-22T20:06:14.578Z,75.23
2022-11-22T20:08:41.717Z,63.27
2022-11-22T20:11:11.145Z,70.13
2022-11-22T20:13:39.645Z,65.93
2022-11-22T20:16:17.667Z,79.53
2022-11-22T20:18:44.370Z,69.17
2022-11-22T20:21:11.131Z,73.80
2022-11-22T20:23:38.512Z,70.30
2022-11-22T20:26:13.063Z,72.90
2022-11-22T20:28:40.825Z,80.77
2022-11-22T20:31:09.189Z,73.60
2022-11-22T20:33:37.084Z,72.37
2022-11-22T20:36:15.006Z,60.90
2022-11-22T20:38:42.557Z,68.73
2022-11-22T20:41:11.060Z,68.93
2022-11-22T20:43:38.252Z,63.77
2022-11-22T20:46:05.912Z,77.63
2022-11-22T20:48:33.181Z,71.47
2022-11-22T20:51:01.645Z,80.30
2022-11-22T20:53:31.441Z,62.97
2022-11-22T20:55:58.078Z,71.97
2022-11-22T20:58:26.160Z,63.70
2022-11-22T21:00:56.156Z,70.57
2022-11-22T21:03:23.829Z,72.47
2022-11-22T21:05:52.389Z,73.90
2022-11-22T21:08:19.993Z,74.07
2022-11-22T21:10:46.858Z,75.47
2022-11-22T21:13:13.955Z,69.80
2022-11-22T21:15:40.790Z,71.70
2022-11-22T21:18:24.712Z,73.00
2022-11-22T21:21:01.468Z,64.77
2022-11-22T21:23:28.066Z,69.50
2022-11-22T21:25:55.130Z,68.57
2022-11-22T21:28:22.254Z,67.20
2022-11-22T21:30:56.138Z,69.13
2022-11-22T21:33:23.193Z,65.47
2022-11-22T21:35:51.873Z,65.30
2022-11-22T21:38:19.287Z,75.50
2022-11-22T21:40:53.820Z,68.03
2022-11-22T21:43:25.594Z,62.40
2022-11-22T21:45:54.291Z,68.37
2022-11-22T21:48:23.505Z,75.23
2022-11-22T21:50:55.538Z,72.03
2022-11-22T21:53:24.638Z,62.67
2022-11-22T21:55:53.582Z,65.97
2022-11-22T21:58:21.416Z,66.47
2022-11-22T22:00:49.383Z,63.47
2022-11-22T22:03:19.892Z,66.30
2022-11-22T22:05:54.516Z,63.63
2022-11-22T22:08:21.317Z,62.73
2022-11-22T22:10:49.595Z,70.30
2022-11-22T22:13:17.268Z,67.87
2022-11-22T22:15:43.888Z,65.57
2022-11-22T22:18:10.510Z,58.53
2022-11-22T22:20:37.337Z,72.90
2022-11-22T22:23:04.127Z,66.97
2022-11-22T22:25:30.776Z,73.33
2022-11-22T22:27:58.564Z,58.53
2022-11-22T22:30:25.449Z,68.30
2022-11-22T22:32:52.513Z,69.10
2022-11-22T22:35:23.146Z,64.73
2022-11-22T22:37:49.977Z,66.10
2022-11-22T22:40:17.231Z,64.40
2022-11-22T22:42:43.868Z,70.67
2022-11-22T22:45:11.087Z,68.83
2022-11-22T22:47:38.098Z,69.93
2022-11-22T22:50:05.003Z,73.90
2022-11-22T22:52:34.886Z,72.93
2022-11-22T22:55:01.548Z,66.53
2022-11-22T22:57:28.900Z,67.57
2022-11-22T22:59:55.758Z,68.27
2022-11-22T23:02:22.584Z,73.07
2022-11-22T23:04:49.334Z,72.60
2022-11-22T23:07:16.100Z,70.97
2022-11-22T23:09:42.760Z,70.77
2022-11-22T23:12:12.338Z,70.83
2022-11-22T23:14:40.169Z,67.53
2022-11-22T23:17:10.186Z,71.40
2022-11-22T23:19:37.301Z,66.20
2022-11-22T23:22:04.512Z,67.27
2022-11-22T23:24:32.444Z,73.70
2022-11-22T23:27:01.699Z,63.47
2022-11-22T23:29:28.598Z,75.97
2022-11-22T23:31:55.637Z,77.33
2022-11-22T23:34:25.219Z,77.47
2022-11-22T23:36:52.100Z,67.10
2022-11-22T23:39:19.080Z,77.00
2022-11-22T23:41:45.845Z,72.27
2022-11-22T23:44:12.840Z,60.43
2022-11-22T23:46:39.730Z,73.17
2022-11-22T23:49:06.954Z,75.67
2022-11-22T23:51:34.973Z,74.27
2022-11-22T23:54:04.412Z,74.77
2022-11-22T23:56:32.590Z,73.70
2022-11-22T23:58:59.871Z,67.87
